Terminal Aerodrome Forecast
Issued by NWS Missoula, MT

Home | Current Version | Previous Version | Text Only | Print | Product List | Glossary On
Versions: 1 2 3 4 5 6 7 8 9 10 11 12 13 14 15 16 17 18 19
000
FTUS45 KMSO 170606 CCA
TAFGPI
TAF COR
KGPI 170606Z 1706/1806 VRB04KT 1SM BR OVC003
      TEMPO 1706/1709 1/2SM FZFG VV002
     FM170900 00000KT 1/2SM FZFG VV002
     FM171200 00000KT 3SM BR OVC004
     FM171600 00000KT P6SM BKN015 OVC060=

USA.gov is the U.S. government's official web portal to all federal, state and local government web resources and services.